Time;durP1;ratioP1;P1;durP2;ratioP2;P2;SDS_P1;SDS_P2;PMS_P1;PMS_P2;Temp;Humidity;BMP_temperature;BMP_pressure;BME280_temperature;BME280_humidity;BME280_pressure;Samples;Min_cycle;Max_cycle;Signal;HPM_P1;HPM_P2
2022/06/21 00:00:24;;;;;;;6.38;2.15;;;17.10;86.30;;;;;;4955197;28;20070;-67
2022/06/21 00:02:59;;;;;;;5.50;2.22;;;17.00;86.40;;;;;;4954967;28;20203;-67
2022/06/21 00:05:38;;;;;;;5.20;2.20;;;16.90;86.60;;;;;;4953403;28;20033;-67
2022/06/21 00:08:07;;;;;;;4.75;2.10;;;16.90;86.80;;;;;;4954415;28;20107;-66
2022/06/21 00:10:34;;;;;;;8.20;2.10;;;16.90;87.00;;;;;;4954321;28;20392;-66
2022/06/21 00:13:02;;;;;;;5.28;2.47;;;16.80;87.00;;;;;;4954393;28;20507;-66
2022/06/21 00:15:29;;;;;;;6.65;2.15;;;16.90;87.10;;;;;;4954477;28;20231;-66
2022/06/21 00:17:55;;;;;;;6.35;2.45;;;16.90;87.30;;;;;;4954599;28;20055;-66
2022/06/21 00:20:24;;;;;;;7.28;2.40;;;16.70;87.40;;;;;;4954208;28;20062;-66
2022/06/21 00:22:51;;;;;;;5.43;2.25;;;16.60;87.70;;;;;;4954247;28;20404;-67
2022/06/21 00:25:24;;;;;;;5.38;1.90;;;16.70;87.90;;;;;;4954299;29;20038;-66
2022/06/21 00:27:52;;;;;;;6.95;2.55;;;16.60;87.80;;;;;;4954156;28;20452;-66
2022/06/21 00:30:18;;;;;;;4.90;2.30;;;16.60;87.90;;;;;;4954106;28;20019;-66
2022/06/21 00:32:47;;;;;;;5.38;2.50;;;16.70;87.90;;;;;;4954137;28;20027;-66
2022/06/21 00:35:20;;;;;;;5.72;2.40;;;16.70;87.90;;;;;;4954190;28;20031;-66
2022/06/21 00:37:46;;;;;;;4.57;2.25;;;16.60;87.90;;;;;;4953855;28;20150;-67
2022/06/21 00:40:23;;;;;;;7.75;2.90;;;16.70;87.90;;;;;;4954049;28;20422;-67
2022/06/21 00:43:19;;;;;;;5.22;2.30;;;16.70;87.80;;;;;;4954253;28;20464;-67
2022/06/21 00:45:48;;;;;;;3.95;2.15;;;16.60;87.80;;;;;;4951470;29;20043;-67
2022/06/21 00:48:29;;;;;;;7.70;2.58;;;16.50;88.30;;;;;;4953762;28;20058;-67
2022/06/21 00:51:16;;;;;;;8.00;2.65;;;16.50;88.60;;;;;;4953943;28;20035;-67
2022/06/21 00:53:49;;;;;;;5.93;2.75;;;16.40;88.70;;;;;;4953949;28;20031;-67
2022/06/21 00:56:39;;;;;;;6.05;2.45;;;16.40;88.90;;;;;;4954005;28;20085;-67
2022/06/21 00:59:25;;;;;;;5.25;2.58;;;16.30;89.10;;;;;;4985568;23;20121;-79
2022/06/21 01:01:58;;;;;;;4.85;2.72;;;16.30;89.50;;;;;;4972686;28;20034;-79
2022/06/21 01:04:37;;;;;;;5.63;2.38;;;16.20;89.50;;;;;;4972747;28;20101;-79
2022/06/21 01:07:08;;;;;;;4.40;2.28;;;16.30;89.60;;;;;;4972449;28;20062;-79
2022/06/21 01:09:38;;;;;;;7.25;2.88;;;16.20;89.50;;;;;;4971070;28;20027;-79
2022/06/21 01:12:14;;;;;;;5.70;2.60;;;16.20;89.60;;;;;;4971318;28;20066;-79
2022/06/21 01:14:46;;;;;;;6.72;2.60;;;16.20;89.80;;;;;;4971744;28;20030;-79
2022/06/21 01:17:12;;;;;;;4.93;2.55;;;16.20;89.80;;;;;;4972638;28;20038;-79
2022/06/21 01:19:47;;;;;;;6.53;2.42;;;16.10;89.80;;;;;;4972243;28;20073;-79
2022/06/21 01:22:37;;;;;;;5.82;2.55;;;16.10;90.00;;;;;;4972502;28;20506;-79
2022/06/21 01:25:25;;;;;;;7.28;2.67;;;16.10;90.00;;;;;;4972381;28;20031;-79
2022/06/21 01:27:55;;;;;;;7.28;2.67;;;16.10;90.10;;;;;;4971897;28;20057;-79
2022/06/21 01:30:23;;;;;;;6.47;2.30;;;16.10;90.10;;;;;;4972057;28;20030;-79
2022/06/21 01:32:50;;;;;;;5.97;2.75;;;16.10;90.20;;;;;;4972400;28;20054;-79
2022/06/21 01:35:28;;;;;;;6.60;2.70;;;16.10;90.30;;;;;;4972318;28;20073;-79
2022/06/21 01:37:55;;;;;;;6.40;2.90;;;16.00;90.30;;;;;;4972011;28;20042;-79
2022/06/21 01:40:26;;;;;;;8.43;2.67;;;16.10;90.40;;;;;;4971965;28;20165;-79
2022/06/21 01:42:56;;;;;;;5.70;2.70;;;16.00;90.40;;;;;;4972360;28;20065;-79
2022/06/21 01:45:27;;;;;;;6.55;2.92;;;15.90;90.60;;;;;;4972068;28;20495;-79
2022/06/21 01:48:16;;;;;;;5.28;2.40;;;16.00;90.50;;;;;;4971926;28;20038;-80
2022/06/21 01:50:44;;;;;;;7.53;2.63;;;16.00;90.40;;;;;;4971973;28;20081;-79
2022/06/21 01:53:11;;;;;;;6.15;2.33;;;16.00;90.40;;;;;;4972023;28;20427;-79
2022/06/21 01:55:50;;;;;;;5.38;2.72;;;16.00;90.50;;;;;;4971838;28;20397;-79
2022/06/21 01:58:21;;;;;;;;;;;16.00;90.40;;;;;;4972242;28;20031;-79
2022/06/21 02:00:55;;;;;;;6.80;2.63;;;16.00;90.40;;;;;;4971850;28;19937;-80
2022/06/21 02:03:26;;;;;;;6.75;2.67;;;15.90;90.50;;;;;;4972052;28;20027;-80
2022/06/21 02:05:56;;;;;;;6.30;2.65;;;15.80;90.70;;;;;;4971590;28;20035;-80
2022/06/21 02:08:36;;;;;;;6.03;2.97;;;15.70;90.90;;;;;;4971983;28;20423;-80
2022/06/21 02:11:07;;;;;;;7.90;3.20;;;15.70;91.10;;;;;;4971846;28;20039;-80
2022/06/21 02:13:48;;;;;;;7.10;2.95;;;15.60;91.20;;;;;;4972252;28;20065;-80
2022/06/21 02:16:21;;;;;;;5.82;2.70;;;15.60;91.20;;;;;;4971746;28;20033;-80
2022/06/21 02:18:55;;;;;;;7.63;3.25;;;15.50;91.30;;;;;;4971705;28;20027;-80
2022/06/21 02:21:40;;;;;;;7.45;3.13;;;15.50;91.40;;;;;;4970400;28;20034;-80
2022/06/21 02:24:12;;;;;;;5.85;2.50;;;15.40;91.40;;;;;;4971875;28;20039;-79
2022/06/21 02:26:39;;;;;;;8.18;2.78;;;15.40;91.90;;;;;;4975437;28;20035;-79
2022/06/21 02:29:05;;;;;;;6.80;2.70;;;15.40;91.60;;;;;;4975529;28;20395;-79
2022/06/21 02:31:31;;;;;;;5.85;2.90;;;15.30;91.70;;;;;;4975500;28;20033;-79
2022/06/21 02:34:04;;;;;;;7.90;3.00;;;15.40;91.80;;;;;;4975469;28;20030;-79
2022/06/21 02:36:50;;;;;;;8.00;3.10;;;15.30;91.80;;;;;;4974089;28;20431;-79
2022/06/21 02:39:21;;;;;;;6.35;2.97;;;15.30;91.80;;;;;;4975309;28;20042;-80
2022/06/21 02:41:51;;;;;;;6.50;3.03;;;15.40;91.80;;;;;;4975395;28;20038;-79
2022/06/21 02:44:28;;;;;;;4.95;2.80;;;15.40;91.80;;;;;;4975286;28;20026;-79
2022/06/21 02:47:00;;;;;;;6.75;2.60;;;15.50;91.50;;;;;;4975257;28;20039;-79
2022/06/21 02:49:34;;;;;;;10.45;3.13;;;15.50;91.60;;;;;;4975197;28;20070;-79
2022/06/21 02:52:07;;;;;;;7.97;2.90;;;15.50;91.60;;;;;;4975319;28;20033;-80
2022/06/21 02:54:34;;;;;;;4.97;2.42;;;15.50;91.60;;;;;;4975115;28;20534;-79
2022/06/21 02:57:14;;;;;;;8.15;2.75;;;15.50;91.50;;;;;;4974768;28;20571;-80
2022/06/21 02:59:42;;;;;;;5.22;2.42;;;15.40;91.60;;;;;;4974731;28;20073;-79
2022/06/21 03:02:12;;;;;;;6.30;2.78;;;15.50;91.60;;;;;;4973840;28;20066;-79
2022/06/21 03:04:50;;;;;;;7.32;2.97;;;15.50;91.50;;;;;;4974963;28;20117;-80
2022/06/21 03:07:26;;;;;;;9.05;3.20;;;15.50;91.50;;;;;;4974655;28;20506;-79
2022/06/21 03:09:53;;;;;;;9.57;3.08;;;15.40;91.60;;;;;;4973612;28;20031;-79
2022/06/21 03:12:23;;;;;;;6.47;2.90;;;15.30;91.60;;;;;;4974432;28;20503;-79
2022/06/21 03:15:55;;;;;;;6.80;2.92;;;15.30;91.60;;;;;;4976365;28;20045;-93
2022/06/21 03:18:44;;;;;;;6.38;2.97;;;15.40;91.70;;;;;;4967693;28;20068;-85
2022/06/21 03:21:15;;;;;;;7.85;3.42;;;15.40;91.60;;;;;;4968454;28;20186;-90
2022/06/21 03:23:45;;;;;;;9.02;3.08;;;15.40;91.60;;;;;;4962909;28;20064;-87
2022/06/21 03:26:16;;;;;;;7.07;3.08;;;15.40;91.70;;;;;;4973402;28;20039;-87
2022/06/21 03:29:19;;;;;;;7.80;3.17;;;15.40;91.80;;;;;;4972609;28;20649;-90
2022/06/21 03:34:26;;;;;;;6.65;2.88;;;15.40;91.90;;;;;;4970701;28;20121;-67
2022/06/21 03:36:52;;;;;;;5.57;3.03;;;15.40;91.90;;;;;;4972721;28;20050;-67
2022/06/21 03:41:42;;;;;;;9.18;3.30;;;15.40;91.90;;;;;;4972947;28;20058;-67
2022/06/21 03:42:13;;;;;;;10.52;3.63;;;15.40;91.90;;;;;;4973350;28;20061;-67
2022/06/21 03:44:45;;;;;;;11.32;3.10;;;15.40;91.90;;;;;;4973287;28;20027;-66
2022/06/21 03:47:33;;;;;;;6.60;2.97;;;15.40;91.90;;;;;;4972906;28;20038;-67
2022/06/21 03:50:32;;;;;;;6.05;3.00;;;15.30;92.10;;;;;;4972868;28;20023;-67
2022/06/21 03:53:30;;;;;;;7.63;2.90;;;15.30;92.20;;;;;;4972643;28;20054;-67
2022/06/21 03:55:59;;;;;;;;;;;15.30;92.60;;;;;;4973266;28;20023;-67
2022/06/21 03:58:47;;;;;;;9.45;2.97;;;15.30;92.30;;;;;;4972941;28;19917;-66
2022/06/21 04:01:35;;;;;;;9.13;2.80;;;15.30;92.30;;;;;;4972945;28;20034;-67
2022/06/21 04:04:01;;;;;;;7.37;2.60;;;15.30;92.40;;;;;;4963791;28;20510;-67
2022/06/21 04:06:55;;;;;;;6.53;3.03;;;15.30;92.40;;;;;;4973052;28;20282;-67
2022/06/21 04:09:43;;;;;;;9.20;3.10;;;15.30;92.40;;;;;;4972450;28;20494;-66
2022/06/21 04:12:16;;;;;;;6.78;3.00;;;15.30;92.30;;;;;;4972720;28;20030;-67
2022/06/21 04:14:42;;;;;;;8.25;3.30;;;15.40;92.30;;;;;;4972680;28;20089;-66
2022/06/21 04:17:20;;;;;;;6.45;2.65;;;15.40;92.20;;;;;;4972464;28;20027;-67
2022/06/21 04:20:07;;;;;;;7.25;2.90;;;15.50;92.10;;;;;;4972640;28;20077;-67
2022/06/21 04:22:51;;;;;;;7.22;2.63;;;15.40;92.20;;;;;;4972197;28;20108;-67
2022/06/21 04:25:31;;;;;;;6.35;2.65;;;15.50;92.30;;;;;;4972704;28;20034;-67
2022/06/21 04:28:08;;;;;;;8.65;2.55;;;15.50;92.30;;;;;;4973388;28;20061;-67
2022/06/21 04:30:51;;;;;;;18.58;8.75;;;15.50;92.30;;;;;;4972344;28;20069;-67
2022/06/21 04:33:25;;;;;;;7.15;3.50;;;15.50;92.20;;;;;;4971683;28;20603;-67
2022/06/21 04:36:21;;;;;;;7.55;3.30;;;15.50;92.40;;;;;;4972501;28;20484;-67
2022/06/21 04:39:00;;;;;;;11.02;3.22;;;15.50;92.40;;;;;;4970759;28;20526;-67
2022/06/21 04:41:51;;;;;;;8.40;2.95;;;15.50;92.30;;;;;;4972150;28;20035;-67
2022/06/21 04:44:20;;;;;;;7.47;2.80;;;15.50;92.40;;;;;;4972165;28;20027;-67
2022/06/21 04:46:57;;;;;;;10.90;3.35;;;15.50;92.50;;;;;;4971920;28;20124;-66
2022/06/21 04:49:32;;;;;;;7.20;3.05;;;15.40;92.50;;;;;;4970751;28;20023;-67
2022/06/21 04:52:06;;;;;;;6.68;2.90;;;15.40;92.40;;;;;;4971830;28;20031;-66
2022/06/21 04:54:35;;;;;;;10.43;2.72;;;15.50;92.50;;;;;;4971479;28;20035;-67
2022/06/21 04:57:28;;;;;;;8.85;3.35;;;15.50;92.60;;;;;;4970578;28;20372;-67
2022/06/21 05:00:03;;;;;;;6.47;2.92;;;15.60;92.50;;;;;;4969383;28;20187;-67
2022/06/21 05:02:48;;;;;;;9.20;3.42;;;15.70;92.50;;;;;;4971672;28;20042;-67
2022/06/21 05:05:25;;;;;;;9.65;3.33;;;15.80;92.50;;;;;;4971864;28;20037;-67
2022/06/21 05:08:26;;;;;;;6.53;2.72;;;15.80;92.30;;;;;;4970969;28;20039;-67
2022/06/21 05:10:56;;;;;;;7.65;3.08;;;15.80;92.50;;;;;;4938640;28;20038;-67
2022/06/21 05:13:32;;;;;;;9.35;3.50;;;15.90;92.40;;;;;;4971490;28;20051;-67
2022/06/21 05:16:05;;;;;;;8.80;3.40;;;15.90;92.20;;;;;;4970311;28;20030;-67
2022/06/21 05:18:42;;;;;;;7.95;3.30;;;15.90;92.30;;;;;;4971250;28;20035;-67
2022/06/21 05:21:25;;;;;;;17.00;4.22;;;15.90;92.50;;;;;;4971535;28;20031;-67
2022/06/21 05:23:51;;;;;;;11.23;3.90;;;16.00;92.20;;;;;;4971212;28;20026;-67
2022/06/21 05:26:27;;;;;;;9.77;3.97;;;16.00;92.20;;;;;;4970488;28;20045;-67
2022/06/21 05:29:05;;;;;;;11.70;3.85;;;16.00;92.10;;;;;;4971549;28;20030;-67
2022/06/21 05:31:39;;;;;;;10.43;4.05;;;16.10;91.90;;;;;;4971885;28;20097;-67
2022/06/21 05:34:19;;;;;;;8.73;4.43;;;16.10;92.00;;;;;;4971574;28;20407;-67
2022/06/21 05:37:04;;;;;;;8.45;3.55;;;16.10;92.00;;;;;;4970358;28;20038;-67
2022/06/21 05:39:36;;;;;;;9.23;3.65;;;16.20;91.80;;;;;;4971189;28;20069;-67
2022/06/21 05:42:06;;;;;;;9.15;3.30;;;16.20;91.90;;;;;;4972006;28;20070;-67
2022/06/21 05:44:40;;;;;;;11.35;3.47;;;16.30;91.90;;;;;;4971569;28;20560;-67
2022/06/21 05:47:21;;;;;;;6.93;2.85;;;16.30;91.80;;;;;;4971390;28;20042;-67
2022/06/21 05:49:48;;;;;;;7.35;3.13;;;16.30;91.90;;;;;;4971305;28;20027;-68
2022/06/21 05:52:41;;;;;;;7.53;2.90;;;16.30;92.00;;;;;;4971413;28;20035;-68
2022/06/21 05:55:18;;;;;;;7.90;2.58;;;16.40;91.60;;;;;;4969134;28;20119;-68
2022/06/21 05:57:59;;;;;;;8.35;3.28;;;16.40;91.90;;;;;;4970860;28;20041;-68
2022/06/21 06:00:53;;;;;;;8.73;3.85;;;16.60;93.90;;;;;;4969293;28;20165;-69
2022/06/21 06:03:45;;;;;;;5.47;2.35;;;16.90;94.40;;;;;;4971158;28;20058;-68
2022/06/21 06:06:13;;;;;;;12.23;2.83;;;16.90;90.80;;;;;;4962904;28;20038;-68
2022/06/21 06:08:45;;;;;;;7.55;3.30;;;17.00;91.50;;;;;;4970262;28;20030;-68
2022/06/21 06:11:18;;;;;;;7.82;2.60;;;17.40;91.20;;;;;;4971228;28;20651;-68
2022/06/21 06:13:45;;;;;;;8.80;2.60;;;17.40;90.40;;;;;;4971349;28;20035;-67
2022/06/21 06:16:32;;;;;;;6.63;2.42;;;17.40;89.90;;;;;;4970881;28;20031;-67
2022/06/21 06:19:16;;;;;;;11.32;2.55;;;17.40;89.50;;;;;;4969403;28;20488;-68
2022/06/21 06:22:05;;;;;;;5.50;1.60;;;17.30;89.40;;;;;;4970982;28;20038;-66
2022/06/21 06:24:37;;;;;;;6.20;2.00;;;17.20;90.50;;;;;;4962831;28;20121;-67
2022/06/21 06:27:09;;;;;;;6.07;1.90;;;17.30;90.10;;;;;;4970576;28;20142;-66
2022/06/21 06:29:42;;;;;;;8.13;1.70;;;17.30;89.90;;;;;;4970780;28;20035;-67
2022/06/21 06:32:23;;;;;;;6.82;2.20;;;17.30;89.80;;;;;;4970912;28;20105;-66
2022/06/21 06:34:52;;;;;;;9.07;2.33;;;17.30;89.50;;;;;;4971238;28;20038;-67
2022/06/21 06:37:30;;;;;;;5.03;1.90;;;17.30;89.30;;;;;;4954166;28;20399;-68
2022/06/21 06:39:57;;;;;;;10.15;2.30;;;17.40;89.70;;;;;;4971006;28;20035;-67
2022/06/21 06:42:26;;;;;;;6.32;2.00;;;17.40;89.20;;;;;;4969648;28;20458;-66
2022/06/21 06:45:20;;;;;;;4.70;1.85;;;17.40;88.50;;;;;;4971059;28;20647;-68
2022/06/21 06:47:50;;;;;;;6.15;1.65;;;17.40;88.60;;;;;;4968154;28;20062;-66
2022/06/21 06:50:27;;;;;;;11.32;2.45;;;17.40;89.80;;;;;;4970641;28;20163;-68
2022/06/21 06:52:59;;;;;;;24.83;3.30;;;17.40;88.50;;;;;;4970585;28;20435;-68
2022/06/21 06:55:37;;;;;;;14.10;3.15;;;17.40;88.30;;;;;;4970799;28;20035;-66
2022/06/21 07:01:15;;;;;;;19.13;3.08;;;17.40;88.00;;;;;;4949532;28;20370;-68
2022/06/21 07:03:58;;;;;;;9.63;2.28;;;17.40;88.10;;;;;;4951311;29;20036;-68
2022/06/21 07:06:42;;;;;;;8.32;2.00;;;17.40;88.20;;;;;;4950975;29;20466;-69
2022/06/21 07:09:27;;;;;;;6.28;1.85;;;17.40;88.30;;;;;;4950629;28;20024;-69
2022/06/21 07:12:08;;;;;;;5.65;1.80;;;17.40;88.30;;;;;;4950979;28;20031;-70
2022/06/21 07:14:36;;;;;;;7.00;1.88;;;17.40;88.20;;;;;;4954531;28;20429;-70
2022/06/21 07:17:11;;;;;;;5.65;2.10;;;17.40;88.10;;;;;;4954422;28;20041;-70
2022/06/21 07:19:37;;;;;;;6.93;2.13;;;17.50;88.50;;;;;;4953155;29;20031;-71
2022/06/21 07:22:19;;;;;;;7.22;2.33;;;17.50;87.90;;;;;;4954469;28;20340;-70
2022/06/21 07:25:06;;;;;;;7.82;2.55;;;17.50;88.00;;;;;;4954409;28;20192;-71
2022/06/21 07:27:36;;;;;;;10.18;2.20;;;17.50;87.90;;;;;;4951281;28;20058;-71
2022/06/21 07:30:09;;;;;;;7.82;2.33;;;17.50;88.50;;;;;;4951459;29;20079;-72
2022/06/21 07:32:44;;;;;;;4.93;1.80;;;17.60;88.40;;;;;;4952850;29;20031;-72
2022/06/21 07:35:18;;;;;;;8.65;2.10;;;17.60;87.80;;;;;;4953331;28;20106;-72
2022/06/21 07:37:50;;;;;;;4.93;1.38;;;17.60;88.10;;;;;;4934013;29;20038;-71
2022/06/21 07:40:26;;;;;;;5.15;1.70;;;17.70;88.30;;;;;;4940289;29;20031;-71
2022/06/21 07:43:01;;;;;;;7.65;1.88;;;17.70;87.40;;;;;;4952213;28;20110;-73
2022/06/21 07:45:40;;;;;;;5.38;1.60;;;17.80;87.20;;;;;;4952581;28;20055;-70
2022/06/21 07:48:27;;;;;;;4.97;1.80;;;17.80;87.20;;;;;;4953665;28;20054;-72
2022/06/21 07:50:57;;;;;;;6.30;1.60;;;17.80;86.40;;;;;;4952739;28;20043;-74
2022/06/21 07:53:43;;;;;;;5.45;2.00;;;17.90;86.50;;;;;;4951254;28;20102;-74
2022/06/21 07:56:19;;;;;;;5.03;1.58;;;17.90;85.40;;;;;;4950713;29;20050;-73
2022/06/21 07:58:53;;;;;;;5.45;1.80;;;18.00;85.10;;;;;;4951354;28;20130;-72
2022/06/21 08:07:35;;;;;;;4.85;1.30;;;18.10;84.50;;;;;;4952189;28;20130;-73
2022/06/21 08:10:18;;;;;;;4.55;1.50;;;18.10;84.60;;;;;;4953367;28;20042;-72
2022/06/21 08:12:45;;;;;;;4.57;1.58;;;18.20;84.40;;;;;;4951768;28;20122;-72
2022/06/21 08:15:11;;;;;;;4.43;1.65;;;18.20;82.10;;;;;;4953360;28;20409;-71
2022/06/21 08:18:08;;;;;;;6.10;2.00;;;18.20;82.00;;;;;;4958682;28;20038;-71
2022/06/21 08:20:49;;;;;;;4.53;1.42;;;18.30;82.60;;;;;;4944634;28;20053;-75
2022/06/21 08:23:22;;;;;;;4.85;1.40;;;18.30;82.40;;;;;;4952487;28;20051;-73
2022/06/21 08:26:17;;;;;;;3.40;1.30;;;18.30;82.60;;;;;;4952807;28;20039;-71
2022/06/21 08:29:06;;;;;;;13.18;2.38;;;18.30;82.70;;;;;;4952610;28;20046;-72
2022/06/21 08:31:38;;;;;;;9.75;1.73;;;18.30;82.40;;;;;;4951499;28;20046;-72
2022/06/21 08:34:19;;;;;;;6.03;1.48;;;18.40;82.40;;;;;;4952838;28;20500;-72
2022/06/21 08:36:52;;;;;;;4.40;1.50;;;18.40;80.40;;;;;;4952833;28;20178;-72
2022/06/21 08:39:34;;;;;;;3.95;1.85;;;18.40;80.80;;;;;;4952137;28;20127;-72
2022/06/21 08:42:23;;;;;;;4.93;1.50;;;18.40;80.40;;;;;;4952985;28;20039;-73
2022/06/21 08:48:05;;;;;;;3.63;1.27;;;18.40;79.60;;;;;;4952184;28;20050;-71
2022/06/21 08:50:57;;;;;;;5.85;1.45;;;18.50;80.60;;;;;;4951133;28;20031;-72
2022/06/21 08:53:52;;;;;;;3.92;1.50;;;18.50;78.50;;;;;;4951758;28;20035;-72
2022/06/21 08:56:21;;;;;;;3.30;1.23;;;18.50;78.60;;;;;;4951522;28;20442;-72
2022/06/21 08:59:05;;;;;;;3.00;1.20;;;18.50;79.50;;;;;;4952376;28;20042;-72
2022/06/21 09:01:52;;;;;;;3.53;1.25;;;18.60;79.70;;;;;;4952907;28;20055;-72
2022/06/21 09:04:26;;;;;;;5.00;1.48;;;18.60;80.20;;;;;;4952578;28;20055;-72
2022/06/21 09:07:43;;;;;;;5.03;1.77;;;18.60;80.40;;;;;;4950542;28;20035;-72
2022/06/21 09:10:36;;;;;;;4.47;1.50;;;18.70;79.70;;;;;;4950197;28;20407;-73
2022/06/21 09:13:23;;;;;;;9.05;4.05;;;18.70;79.30;;;;;;4951983;28;20038;-74
2022/06/21 09:16:02;;;;;;;6.55;2.83;;;18.70;78.00;;;;;;4951930;28;20067;-73
2022/06/21 09:18:30;;;;;;;4.03;1.73;;;18.80;78.40;;;;;;4951744;28;20023;-77
2022/06/21 09:21:10;;;;;;;4.28;1.90;;;18.90;79.60;;;;;;4952057;28;20138;-73
2022/06/21 09:24:05;;;;;;;5.07;1.80;;;18.90;80.00;;;;;;4951576;28;20115;-72
2022/06/21 09:26:40;;;;;;;3.53;1.35;;;19.00;79.70;;;;;;4952631;28;20117;-72
2022/06/21 09:29:30;;;;;;;3.10;1.40;;;19.00;78.70;;;;;;4952795;28;20066;-73
2022/06/21 09:32:05;;;;;;;2.95;1.20;;;19.00;76.50;;;;;;4952734;28;20384;-72
2022/06/21 09:34:50;;;;;;;3.63;1.30;;;19.10;75.10;;;;;;4951507;28;20480;-72
2022/06/21 09:37:25;;;;;;;4.63;1.45;;;19.10;76.00;;;;;;4951472;28;20481;-76
2022/06/21 09:40:09;;;;;;;4.20;1.73;;;19.10;76.90;;;;;;4952099;28;20396;-73
2022/06/21 09:42:47;;;;;;;6.00;1.55;;;19.10;77.70;;;;;;4951417;28;20047;-72
2022/06/21 09:45:25;;;;;;;16.37;2.53;;;19.20;77.90;;;;;;4951783;28;20119;-73
2022/06/21 09:47:59;;;;;;;8.82;2.03;;;19.20;77.70;;;;;;4951160;28;20042;-72
2022/06/21 09:50:56;;;;;;;5.10;2.13;;;19.30;78.10;;;;;;4949962;29;20023;-72
2022/06/21 09:53:25;;;;;;;4.18;1.95;;;19.30;77.50;;;;;;4950075;28;20023;-72
2022/06/21 09:56:09;;;;;;;4.50;1.50;;;19.30;77.20;;;;;;4951318;28;20027;-74
2022/06/21 09:58:47;;;;;;;4.80;1.50;;;19.30;77.90;;;;;;4951540;28;20031;-72
2022/06/21 10:01:22;;;;;;;4.80;1.85;;;19.40;78.40;;;;;;4951588;28;20033;-72
2022/06/21 10:04:30;;;;;;;3.95;1.83;;;19.40;78.10;;;;;;4950325;28;20035;-71
2022/06/21 10:07:30;;;;;;;5.10;2.00;;;19.50;76.90;;;;;;4949906;28;20045;-71
2022/06/21 10:09:59;;;;;;;4.38;1.60;;;19.50;77.10;;;;;;4951368;28;20039;-72
2022/06/21 10:12:43;;;;;;;6.57;2.05;;;19.50;77.30;;;;;;4951474;28;20081;-71
2022/06/21 10:15:35;;;;;;;4.32;1.70;;;19.50;77.50;;;;;;4950237;28;20596;-71
2022/06/21 10:18:34;;;;;;;3.97;1.50;;;19.50;78.30;;;;;;4951238;28;20122;-71
2022/06/21 10:21:05;;;;;;;8.27;1.30;;;19.50;77.50;;;;;;4933601;29;20039;-72
2022/06/21 10:24:04;;;;;;;3.13;1.23;;;19.60;77.00;;;;;;4951012;28;20059;-71
2022/06/21 10:26:47;;;;;;;4.35;1.42;;;19.70;77.00;;;;;;4950889;28;20046;-69
2022/06/21 10:29:25;;;;;;;4.72;1.50;;;19.70;77.20;;;;;;4950823;28;20023;-72
2022/06/21 10:32:01;;;;;;;4.13;1.50;;;19.70;76.00;;;;;;4949673;29;20463;-69
2022/06/21 10:34:45;;;;;;;3.95;1.30;;;19.80;76.60;;;;;;4951110;28;20350;-67
2022/06/21 10:37:20;;;;;;;4.30;1.70;;;19.80;76.40;;;;;;4951422;28;20035;-69
2022/06/21 10:40:23;;;;;;;6.55;1.98;;;19.80;75.50;;;;;;4950837;28;20101;-74
2022/06/21 10:43:10;;;;;;;6.78;1.70;;;19.80;90.90;;;;;;4951243;28;20038;-70
2022/06/21 10:45:58;;;;;;;6.97;2.42;;;19.70;90.30;;;;;;4951775;28;20031;-72
2022/06/21 10:48:42;;;;;;;6.43;1.93;;;19.40;91.40;;;;;;4953610;28;20483;-68
2022/06/21 10:51:10;;;;;;;5.95;2.30;;;19.30;94.60;;;;;;4955062;28;20079;-68
2022/06/21 10:54:10;;;;;;;7.15;2.17;;;19.10;96.10;;;;;;4954911;28;20051;-68
2022/06/21 10:57:09;;;;;;;5.75;1.50;;;18.90;93.70;;;;;;4954994;28;20035;-68
2022/06/21 11:02:39;;;;;;;6.13;2.05;;;18.80;94.00;;;;;;4954898;28;20101;-69
2022/06/21 11:05:07;;;;;;;7.17;2.30;;;18.60;94.80;;;;;;4953562;28;20042;-68
2022/06/21 11:07:45;;;;;;;6.80;2.25;;;18.60;91.20;;;;;;4954212;28;20031;-68
2022/06/21 11:10:24;;;;;;;8.25;2.50;;;18.60;93.60;;;;;;4953463;29;20047;-67
2022/06/21 11:13:03;;;;;;;7.75;2.53;;;18.60;94.90;;;;;;4965831;28;20035;-67
2022/06/21 11:15:35;;;;;;;5.45;2.50;;;18.60;98.60;;;;;;4974015;28;20062;-68
2022/06/21 11:18:04;;;;;;;5.90;2.47;;;18.50;99.90;;;;;;4973891;28;20125;-67
2022/06/21 11:20:40;;;;;;;7.55;2.20;;;18.50;99.90;;;;;;4973827;28;20505;-67
2022/06/21 11:23:18;;;;;;;6.82;3.10;;;18.60;93.80;;;;;;4973500;28;20114;-67
2022/06/21 11:25:49;;;;;;;7.72;2.80;;;18.60;97.30;;;;;;4973723;28;20039;-67
2022/06/21 11:28:52;;;;;;;7.40;2.40;;;18.60;99.80;;;;;;4973757;28;20147;-67
2022/06/21 11:31:41;;;;;;;7.75;2.45;;;18.50;98.00;;;;;;4974022;28;20054;-67
2022/06/21 11:34:16;;;;;;;;;;;18.50;99.30;;;;;;4973002;28;20035;-68
2022/06/21 11:36:57;;;;;;;4.63;2.00;;;18.50;99.90;;;;;;4973783;28;19918;-67
2022/06/21 11:39:40;;;;;;;5.38;2.47;;;18.50;97.20;;;;;;4973059;28;20030;-68
2022/06/21 11:42:24;;;;;;;3.88;2.13;;;18.50;99.90;;;;;;4973670;28;20035;-68
2022/06/21 11:45:14;;;;;;;6.03;2.40;;;18.40;99.90;;;;;;4973588;28;20058;-68
2022/06/21 11:47:58;;;;;;;5.68;2.47;;;18.40;99.90;;;;;;4971695;28;20035;-68
2022/06/21 11:50:43;;;;;;;3.90;1.92;;;18.40;99.90;;;;;;4973112;28;20042;-68
2022/06/21 11:53:46;;;;;;;6.32;2.58;;;18.40;98.60;;;;;;4972724;28;20404;-69
2022/06/21 11:56:27;;;;;;;5.40;2.80;;;18.40;99.90;;;;;;4973030;28;20034;-68
2022/06/21 11:59:06;;;;;;;4.95;2.63;;;18.40;99.90;;;;;;4971979;28;20031;-69
2022/06/21 12:01:44;;;;;;;5.93;2.80;;;18.40;99.90;;;;;;4973048;28;20030;-68
2022/06/21 12:04:27;;;;;;;4.55;2.60;;;18.40;99.90;;;;;;4972889;28;20037;-68
2022/06/21 12:07:03;;;;;;;5.22;2.55;;;18.40;99.90;;;;;;4972777;28;20138;-68
2022/06/21 12:09:35;;;;;;;7.72;2.83;;;18.40;99.90;;;;;;4972457;28;20444;-68
2022/06/21 12:12:26;;;;;;;7.78;3.35;;;18.40;99.90;;;;;;4971534;28;20126;-68
2022/06/21 12:15:11;;;;;;;6.80;3.05;;;18.50;99.90;;;;;;4972727;28;20502;-68
2022/06/21 12:17:50;;;;;;;6.45;2.60;;;18.50;99.90;;;;;;4959011;28;20039;-68
2022/06/21 12:20:21;;;;;;;7.32;3.17;;;18.50;99.90;;;;;;4953371;28;20436;-69
2022/06/21 12:23:12;;;;;;;5.22;2.28;;;18.60;99.90;;;;;;4952642;28;20396;-68
2022/06/21 12:25:38;;;;;;;4.80;2.30;;;18.60;99.90;;;;;;4952623;28;20141;-68
2022/06/21 12:28:24;;;;;;;4.00;2.30;;;18.70;99.90;;;;;;4952763;28;20199;-69
2022/06/21 12:30:51;;;;;;;11.02;4.10;;;18.80;99.90;;;;;;4952719;28;20126;-69
2022/06/21 12:33:24;;;;;;;8.82;4.22;;;18.90;98.10;;;;;;4952866;28;20179;-68
2022/06/21 12:36:22;;;;;;;7.13;2.20;;;19.10;97.90;;;;;;4952881;28;20629;-69
2022/06/21 12:39:04;;;;;;;5.18;2.00;;;19.30;93.80;;;;;;4952177;28;20608;-69
2022/06/21 12:41:35;;;;;;;7.40;2.53;;;19.50;88.00;;;;;;4952731;28;20028;-70
2022/06/21 12:44:16;;;;;;;5.88;1.95;;;19.60;87.80;;;;;;4938173;28;20489;-68
2022/06/21 12:46:52;;;;;;;6.25;2.30;;;19.60;94.70;;;;;;4933431;29;20540;-69
2022/06/21 12:49:53;;;;;;;4.85;2.05;;;19.50;98.10;;;;;;4933369;29;20028;-70
2022/06/21 12:52:38;;;;;;;4.60;1.50;;;19.50;90.70;;;;;;4933155;29;20043;-69
2022/06/21 12:55:16;;;;;;;5.15;1.80;;;19.70;86.30;;;;;;4932132;29;20389;-69
2022/06/21 12:58:16;;;;;;;6.13;1.95;;;19.80;82.60;;;;;;4932678;29;20040;-69
2022/06/21 13:00:54;;;;;;;5.38;1.60;;;20.00;84.70;;;;;;4925813;29;20048;-69
2022/06/21 13:03:24;;;;;;;6.00;2.30;;;20.00;82.50;;;;;;5011718;23;20073;-85
2022/06/21 13:06:30;;;;;;;5.20;2.00;;;20.00;95.30;;;;;;4953559;28;20202;-81
2022/06/21 13:08:58;;;;;;;5.35;2.08;;;19.80;99.10;;;;;;4969132;28;20104;-81
2022/06/21 13:11:33;;;;;;;3.22;1.80;;;19.80;94.90;;;;;;4971041;28;20054;-82
2022/06/21 13:14:32;;;;;;;4.00;1.65;;;19.80;94.80;;;;;;4971230;28;20070;-82
2022/06/21 13:17:22;;;;;;;4.40;1.70;;;19.80;96.10;;;;;;4970659;28;20065;-82
2022/06/21 13:19:51;;;;;;;4.40;1.83;;;19.90;81.40;;;;;;4970828;28;20031;-81
2022/06/21 13:22:44;;;;;;;6.20;2.15;;;19.90;93.50;;;;;;4970416;28;20118;-82
2022/06/21 13:25:39;;;;;;;4.78;1.90;;;19.90;97.30;;;;;;4971721;28;20030;-81
2022/06/21 13:28:18;;;;;;;7.75;2.47;;;19.80;90.10;;;;;;4971084;28;20031;-82
2022/06/21 13:30:54;;;;;;;5.00;2.45;;;19.80;82.10;;;;;;4971422;28;20030;-82
2022/06/21 13:33:42;;;;;;;3.85;2.00;;;19.80;95.50;;;;;;4971302;28;20117;-81
2022/06/21 13:36:28;;;;;;;3.85;2.15;;;19.70;91.80;;;;;;4969147;28;20030;-81
2022/06/21 13:39:18;;;;;;;4.97;2.15;;;19.70;97.30;;;;;;4970619;28;20034;-81
2022/06/21 13:45:11;;;;;;;3.97;1.83;;;19.70;89.30;;;;;;4969326;28;20647;-81
2022/06/21 13:47:56;;;;;;;6.28;2.45;;;19.60;97.60;;;;;;4970698;28;20408;-81
2022/06/21 13:50:36;;;;;;;5.82;2.05;;;19.70;99.70;;;;;;4971055;28;20368;-81
2022/06/21 13:53:20;;;;;;;5.85;2.10;;;19.80;96.50;;;;;;4970327;28;20436;-82
2022/06/21 13:55:49;;;;;;;3.72;2.10;;;19.90;96.20;;;;;;4970866;28;20026;-82
2022/06/21 13:58:27;;;;;;;8.02;2.25;;;20.00;96.80;;;;;;4970836;28;20046;-82
2022/06/21 14:01:06;;;;;;;6.28;2.50;;;20.10;90.10;;;;;;4970509;28;20031;-82
2022/06/21 14:03:53;;;;;;;6.45;2.30;;;20.20;97.70;;;;;;4970471;28;20038;-80
2022/06/21 14:06:44;;;;;;;6.13;2.40;;;20.20;93.80;;;;;;4968444;28;20081;-81
2022/06/21 14:09:39;;;;;;;4.88;1.70;;;20.40;94.50;;;;;;4969165;28;20383;-81